Home > Products > Valid Products > TAF

000
FTUS44 KLCH 020520
TAFARA
TAF
KARA 020520Z 0206/0306 VRB03KT P6SM SCT100 SCT250
     FM021400 22005KT P6SM SCT025
     FM021800 22009KT P6SM SCT040=



000
FTUS44 KLCH 020520
TAFBPT
TAF
KBPT 020520Z 0206/0306 21005KT P6SM SCT120 SCT250
     FM021400 18009KT P6SM SCT025
     FM021800 18013G19KT P6SM SCT040=



000
FTUS44 KLCH 020520
TAFAEX
TAF
KAEX 020520Z 0206/0306 18005KT P6SM SCT120
     FM021400 20007KT P6SM SCT025
     FM021800 23011KT P6SM SCT040=



000
FTUS44 KLCH 020520
TAFLFT
TAF
KLFT 020520Z 0206/0306 VRB03KT P6SM SCT100 SCT250
     FM021400 22005KT P6SM SCT025
     FM021800 22009KT P6SM SCT040=



000
FTUS44 KLCH 020520
TAFLCH
TAF
KLCH 020520Z 0206/0306 VRB03KT P6SM SCT120 SCT250
     FM021400 20008KT P6SM SCT025
     FM021800 21010KT P6SM SCT040=



000
FTUS44 KLCH 020150 AAA
TAFARA
TAF AMD
KARA 020150Z 0202/0224 24005KT P6SM VCTS SCT025CB SCT035 BKN250
      TEMPO 0202/0204 VRB15G30KT 2SM TSRA BKN025CB
     FM020400 VRB03KT P6SM BKN250
     FM021400 22005KT P6SM SCT025
     FM021800 22009KT P6SM SCT040=



000
FTUS44 KLCH 020149 AAA
TAFLFT
TAF AMD
KLFT 020149Z 0202/0224 24005KT P6SM VCTS SCT025CB SCT035 BKN250
      TEMPO 0202/0204 VRB15G30KT 2SM TSRA BKN025CB
     FM020400 VRB03KT P6SM BKN250
     FM021400 22005KT P6SM SCT025
     FM021800 22009KT P6SM SCT040=



000
FTUS44 KLCH 012320
TAFAEX
TAF
KAEX 012320Z 0200/0224 19008KT P6SM VCTS SCT050CB BKN250
     FM020200 18005KT P6SM BKN250
     FM021400 20007KT P6SM SCT025
     FM021800 23011KT P6SM SCT040=



000
FTUS44 KLCH 012320
TAFLCH
TAF
KLCH 012320Z 0200/0224 22005KT P6SM VCTS SCT025CB SCT035 BKN250
      TEMPO 0200/0202 VRB15G30KT 2SM TSRA BKN025CB
     FM020200 19003KT P6SM BKN250
     FM021400 20008KT P6SM SCT025
     FM021800 21010KT P6SM SCT040=



000
FTUS44 KLCH 012320
TAFLCH
TAF
KLCH 012320Z 0200/0224 22005KT P6SM VCTS SCT025CB SCT035 BKN250
      TEMPO 0200/0202 VRB15G30KT 2SM TSRA BKN025CB
     FM020200 19003KT P6SM BKN250
     FM021400 20008KT P6SM SCT025
     FM021800 21010KT P6SM SCT040=



000
FTUS44 KLCH 012320
TAFAEX
TAF
KAEX 012320Z 0200/0224 19008KT P6SM VCTS SCT050CB BKN250
     FM020200 18005KT P6SM BKN250
     FM021400 20007KT P6SM SCT025
     FM021800 23011KT P6SM SCT040=



000
FTUS44 KLCH 012320
TAFBPT
TAF
KBPT 012320Z 0200/0224 22007KT P6SM VCTS SCT025CB SCT035 BKN250
      TEMPO 0200/0201 VRB15G30KT 2SM TSRA BKN025CB
     FM020200 21005KT P6SM BKN250
     FM021400 18009KT P6SM SCT025
     FM021800 18013G19KT P6SM SCT040=



000
FTUS44 KLCH 012320
TAFARA
TAF
KARA 012320Z 0200/0224 24005KT P6SM VCTS SCT025CB SCT035 BKN250
      TEMPO 0200/0202 VRB15G30KT 2SM TSRA BKN025CB
     FM020200 VRB03KT P6SM BKN250
     FM021400 22005KT P6SM SCT025
     FM021800 22009KT P6SM SCT040=



000
FTUS44 KLCH 012320
TAFLFT
TAF
KLFT 012320Z 0200/0224 24005KT P6SM VCTS SCT025CB SCT035 BKN250
      TEMPO 0200/0202 VRB15G30KT 2SM TSRA BKN025CB
     FM020200 VRB03KT P6SM BKN250
     FM021400 22005KT P6SM SCT025
     FM021800 22009KT P6SM SCT040=



000
FTUS44 KLCH 012320
TAFARA
TAF
KARA 012320Z 0200/0224 24005KT P6SM VCTS SCT025CB SCT035 BKN250
      TEMPO 0200/0202 VRB15G30KT 2SM TSRA BKN025CB
     FM020200 VRB03KT P6SM BKN250
     FM021400 22005KT P6SM SCT025
     FM021800 22009KT P6SM SCT040=



000
FTUS44 KLCH 012320
TAFBPT
TAF
KBPT 012320Z 0200/0224 22007KT P6SM VCTS SCT025CB SCT035 BKN250
      TEMPO 0200/0201 VRB15G30KT 2SM TSRA BKN025CB
     FM020200 21005KT P6SM BKN250
     FM021400 18009KT P6SM SCT025
     FM021800 18013G19KT P6SM SCT040=



000
FTUS44 KLCH 012320
TAFLFT
TAF
KLFT 012320Z 0200/0224 24005KT P6SM VCTS SCT025CB SCT035 BKN250
      TEMPO 0200/0202 VRB15G30KT 2SM TSRA BKN025CB
     FM020200 VRB03KT P6SM BKN250
     FM021400 22005KT P6SM SCT025
     FM021800 22009KT P6SM SCT040=



000
FTUS44 KLCH 012229 AAB
TAFLCH
TAF AMD
KLCH 012229Z 0122/0218 22008KT P6SM VCTS SCT025CB SCT035 BKN250
      TEMPO 0122/0124 VRB15G30KT 2SM TSRA BKN025CB
     FM020200 19003KT P6SM BKN250
     FM021300 21008KT P6SM SCT020=



000
FTUS44 KLCH 012224 CCA
TAFLFT
TAF COR
KLFT 012224Z 0122/0218 VRB05KT P6SM VCTS SCT025CB BKN090
      TEMPO 0122/0124 VRB15G30KT 2SM +TSRA SCT015 BKN025CB OVC035
     FM020200 00000KT P6SM BKN250
     FM021300 21008KT P6SM SCT015=



000
FTUS44 KLCH 012223 AAA
TAFARA
TAF AMD
KARA 012223Z 0122/0218 20010G18KT P6SM VCTS SCT025CB BKN040
      TEMPO 0122/0124 VRB15G30KT 2SM +TSRA SCT015 BKN025CB OVC035
     FM020200 00000KT P6SM BKN250
     FM021300 21008KT P6SM SCT015=



000
FTUS44 KLCH 012222 AAA
TAFLFT
TAF AMD
KLFT 012222Z 0122/0218 20010G18KT P6SM VCTS SCT025CB BKN090
      TEMPO 0122/0124 VRB15G30KT 2SM +TSRA SCT015 BKN025CB OVC035
     FM020200 00000KT P6SM BKN250
     FM021300 21008KT P6SM SCT015=



000
FTUS44 KLCH 012221 AAA
TAFAEX
TAF AMD
KAEX 012221Z 0122/0218 20007KT P6SM VCTS SCT050CB BKN250
     FM020200 18004KT P6SM BKN250
     FM021300 22010KT P6SM FEW025=



000
FTUS44 KLCH 012219 AAA
TAFBPT
TAF AMD
KBPT 012219Z 0122/0218 19008KT P6SM VCTS SCT025CB SCT035 BKN250
      TEMPO 0122/0124 VRB15G30KT 2SM TSRA BKN025CB
     FM020200 18005KT P6SM BKN250
     FM021300 19010KT P6SM SCT020=



000
FTUS44 KLCH 012217 AAA
TAFLCH
TAF AMD
KLCH 012217Z 0122/0218 22008KT P6SM VCTS SCT025CB SCT035 BKN250
     FM020200 19003KT P6SM BKN250
     FM021300 21008KT P6SM SCT020=



000
FTUS44 KLCH 011737
TAFBPT
TAF
KBPT 011737Z 0118/0218 20010G18KT P6SM VCTS SCT025CB BKN035
      TEMPO 0118/0120 VRB15G25KT 2SM +TSRA SCT015 BKN025CB OVC035
     FM020200 18005KT P6SM BKN250
     FM021300 19010KT P6SM SCT020=



000
FTUS44 KLCH 011737
TAFLCH
TAF
KLCH 011737Z 0118/0218 20010G18KT P6SM VCTS SCT025CB BKN035
      TEMPO 0118/0120 VRB15G25KT 2SM +TSRA SCT015 BKN025CB OVC035
     FM020200 19003KT P6SM BKN250
     FM021300 21008KT P6SM SCT020=



000
FTUS44 KLCH 011737
TAFARA
TAF
KARA 011737Z 0118/0218 20010G18KT P6SM VCTS SCT025CB BKN035
      TEMPO 0118/0121 VRB15G25KT 2SM +TSRA SCT015 BKN025CB OVC035
     FM020200 00000KT P6SM BKN250
     FM021300 21008KT P6SM SCT015=



000
FTUS44 KLCH 011737
TAFAEX
TAF
KAEX 011737Z 0118/0218 20010G18KT P6SM VCTS SCT035CB
      TEMPO 0119/0123 VRB15G25KT 2SM +TSRA SCT015 BKN025CB OVC035
     FM020200 18004KT P6SM BKN250
     FM021300 22010KT P6SM FEW025=



000
FTUS44 KLCH 011737
TAFLFT
TAF
KLFT 011737Z 0118/0218 20010G18KT P6SM VCTS SCT025CB BKN035
      TEMPO 0118/0121 VRB15G25KT 2SM +TSRA SCT015 BKN025CB OVC035
     FM020200 00000KT P6SM BKN250
     FM021300 21008KT P6SM SCT015=



000
FTUS44 KLCH 011503 AAA
TAFBPT
TAF AMD
KBPT 011503Z 0115/0212 20006KT P6SM VCSH SCT015
      TEMPO 0115/0117 BKN015
     FM011800 19011KT P6SM VCTS SCT035CB SCT250
     FM020200 20004KT P6SM SCT250=



000
FTUS44 KLCH 011122
TAFBPT
TAF
KBPT 011122Z 0112/0212 00000KT P6SM FEW250
      TEMPO 0112/0113 5SM BR
     FM011500 20006KT P6SM VCSH SCT025
     FM011800 19011KT P6SM VCTS SCT035CB SCT250
     FM020200 20004KT P6SM SCT250=



000
FTUS44 KLCH 011122
TAFAEX
TAF
KAEX 011122Z 0112/0212 16003KT P6SM SKC
      TEMPO 0112/0113 4SM BR
     FM011600 23006KT P6SM SCT025
     FM011900 22009KT P6SM VCTS SCT035CB SCT250
     FM020200 VRB04KT P6SM SCT250=



000
FTUS44 KLCH 011122
TAFLCH
TAF
KLCH 011122Z 0112/0212 VRB03KT P6SM FEW250
      TEMPO 0112/0113 5SM BR
     FM011500 22005KT P6SM VCSH SCT025
     FM011800 22008KT P6SM VCTS SCT035CB SCT250
     FM020200 19003KT P6SM SCT250=



000
FTUS44 KLCH 011122
TAFAEX
TAF
KAEX 011122Z 0112/0212 16003KT P6SM SKC
      TEMPO 0112/0113 4SM BR
     FM011600 23006KT P6SM SCT025
     FM011900 22009KT P6SM VCTS SCT035CB SCT250
     FM020200 VRB04KT P6SM SCT250=



000
FTUS44 KLCH 011122
TAFBPT
TAF
KBPT 011122Z 0112/0212 00000KT P6SM FEW250
      TEMPO 0112/0113 5SM BR
     FM011500 20006KT P6SM VCSH SCT025
     FM011800 19011KT P6SM VCTS SCT035CB SCT250
     FM020200 20004KT P6SM SCT250=



000
FTUS44 KLCH 011122
TAFLFT
TAF
KLFT 011122Z 0112/0212 00000KT P6SM FEW250
      TEMPO 0112/0113 4SM BR FEW002
     FM011500 21005KT P6SM VCSH SCT025
     FM011800 22010KT P6SM VCTS SCT035CB SCT250
     FM020200 21003KT P6SM SCT250=



000
FTUS44 KLCH 011122
TAFLCH
TAF
KLCH 011122Z 0112/0212 VRB03KT P6SM FEW250
      TEMPO 0112/0113 5SM BR
     FM011500 22005KT P6SM VCSH SCT025
     FM011800 22008KT P6SM VCTS SCT035CB SCT250
     FM020200 19003KT P6SM SCT250=



000
FTUS44 KLCH 011122
TAFARA
TAF
KARA 011122Z 0112/0212 VRB03KT P6SM FEW250
      TEMPO 0112/0113 4SM BR FEW002
     FM011500 21006KT P6SM VCSH SCT025
     FM011800 22010KT P6SM VCTS SCT035CB SCT250
     FM020200 21003KT P6SM SCT250=



000
FTUS44 KLCH 011122
TAFARA
TAF
KARA 011122Z 0112/0212 VRB03KT P6SM FEW250
      TEMPO 0112/0113 4SM BR FEW002
     FM011500 21006KT P6SM VCSH SCT025
     FM011800 22010KT P6SM VCTS SCT035CB SCT250
     FM020200 21003KT P6SM SCT250=



000
FTUS44 KLCH 011122
TAFLFT
TAF
KLFT 011122Z 0112/0212 00000KT P6SM FEW250
      TEMPO 0112/0113 4SM BR FEW002
     FM011500 21005KT P6SM VCSH SCT025
     FM011800 22010KT P6SM VCTS SCT035CB SCT250
     FM020200 21003KT P6SM SCT250=



000
FTUS44 KLCH 010520
TAFLFT
TAF
KLFT 010520Z 0106/0206 VRB03KT P6SM SCT015 SCT250
      TEMPO 0109/0113 4SM BR
     FM011500 24007KT P6SM VCSH SCT025
     FM011800 24010KT P6SM VCTS SCT035CB SCT250
     FM020200 21003KT P6SM SCT250=



000
FTUS44 KLCH 010520
TAFBPT
TAF
KBPT 010520Z 0106/0206 VRB03KT P6SM SCT015 SCT250
      TEMPO 0109/0113 4SM BR
     FM011500 20008KT P6SM VCSH SCT025
     FM011800 19011KT P6SM VCTS SCT035CB SCT250
     FM020200 20004KT P6SM SCT250=



000
FTUS44 KLCH 010520
TAFAEX
TAF
KAEX 010520Z 0106/0206 VRB03KT P6SM SCT250
      TEMPO 0109/0113 4SM BR
     FM011600 24006KT P6SM VCSH SCT025
     FM011900 24006KT P6SM VCTS SCT035CB SCT250
     FM020300 VRB04KT P6SM SCT250=



000
FTUS44 KLCH 010520
TAFLCH
TAF
KLCH 010520Z 0106/0206 VRB03KT P6SM SCT015 SCT250
      TEMPO 0109/0113 4SM BR
     FM011500 24006KT P6SM VCSH SCT025
     FM011800 22008KT P6SM VCTS SCT035CB SCT250
     FM020200 19003KT P6SM SCT250=



000
FTUS44 KLCH 010520
TAFAEX
TAF
KAEX 010520Z 0106/0206 VRB03KT P6SM SCT250
      TEMPO 0109/0113 4SM BR
     FM011600 24006KT P6SM VCSH SCT025
     FM011900 24006KT P6SM VCTS SCT035CB SCT250
     FM020300 VRB04KT P6SM SCT250=



000
FTUS44 KLCH 010520
TAFBPT
TAF
KBPT 010520Z 0106/0206 VRB03KT P6SM SCT015 SCT250
      TEMPO 0109/0113 4SM BR
     FM011500 20008KT P6SM VCSH SCT025
     FM011800 19011KT P6SM VCTS SCT035CB SCT250
     FM020200 20004KT P6SM SCT250=



000
FTUS44 KLCH 010520
TAFARA
TAF
KARA 010520Z 0106/0206 VRB03KT P6SM SCT015 SCT250
      TEMPO 0109/0113 4SM BR
     FM011500 24007KT P6SM VCSH SCT025
     FM011800 24010KT P6SM VCTS SCT035CB SCT250
     FM020200 21003KT P6SM SCT250=



000
FTUS44 KLCH 010520
TAFLCH
TAF
KLCH 010520Z 0106/0206 VRB03KT P6SM SCT015 SCT250
      TEMPO 0109/0113 4SM BR
     FM011500 24006KT P6SM VCSH SCT025
     FM011800 22008KT P6SM VCTS SCT035CB SCT250
     FM020200 19003KT P6SM SCT250=



000
FTUS44 KLCH 010520
TAFARA
TAF
KARA 010520Z 0106/0206 VRB03KT P6SM SCT015 SCT250
      TEMPO 0109/0113 4SM BR
     FM011500 24007KT P6SM VCSH SCT025
     FM011800 24010KT P6SM VCTS SCT035CB SCT250
     FM020200 21003KT P6SM SCT250=



000
FTUS44 KLCH 010520
TAFLFT
TAF
KLFT 010520Z 0106/0206 VRB03KT P6SM SCT015 SCT250
      TEMPO 0109/0113 4SM BR
     FM011500 24007KT P6SM VCSH SCT025
     FM011800 24010KT P6SM VCTS SCT035CB SCT250
     FM020200 21003KT P6SM SCT250=



000
FTUS44 KLCH 302320
TAFLFT
TAF
KLFT 302320Z 0100/0124 VRB05KT P6SM VCTS SCT025CB BKN040
     FM010200 VRB03KT P6SM BKN250
     FM011000 00000KT P6SM SCT015
     FM011500 24007KT P6SM VCSH SCT025 PROB30 0118/0124 VRB15G30KT
      4SM TSRA BKN035CB=



000
FTUS44 KLCH 302320
TAFLCH
TAF
KLCH 302320Z 0100/0124 24012G22KT P6SM VCTS FEW020CB SCT035 OVC150
     FM010200 VRB04KT P6SM BKN250
     FM011000 00000KT P6SM SCT015
     FM011500 24006KT P6SM VCSH SCT025 PROB30 0118/0124 VRB15G25KT
      4SM TSRA BKN035CB=



000
FTUS44 KLCH 302320
TAFBPT
TAF
KBPT 302320Z 0100/0124 22012G20KT P6SM VCTS FEW020CB SCT035 OVC150
     FM010200 VRB04KT P6SM BKN250
     FM011000 VRB03KT P6SM SCT015
     FM011500 21007KT P6SM VCSH SCT025 PROB30 0118/0124 VRB15G25KT
      4SM TSRA BKN035CB=



000
FTUS44 KLCH 302320
TAFAEX
TAF
KAEX 302320Z 0100/0124 20008KT P6SM VCTS FEW020CB SCT035 OVC150
     FM010200 19005KT P6SM FEW015 BKN250
     FM011500 24008KT P6SM VCSH SCT025 PROB30 0118/0124 VRB15G25KT
      4SM TSRA BKN035CB=



000
FTUS44 KLCH 302320
TAFARA
TAF
KARA 302320Z 0100/0124 VRB05KT P6SM VCTS SCT025CB BKN040
     FM010200 VRB03KT P6SM BKN250
     FM011000 00000KT P6SM SCT015
     FM011500 24007KT P6SM VCSH SCT025 PROB30 0118/0124 VRB15G30KT
      4SM TSRA BKN035CB=



000
FTUS44 KLCH 302221 AAA
TAFARA
TAF AMD
KARA 302221Z 3022/0118 22008KT P6SM VCTS SCT025CB BKN080
      TEMPO 3022/3024 VRB15G25KT 2SM +TSRA BKN015CB OVC035
     FM010200 VRB03KT P6SM BKN250
     FM011000 00000KT P6SM SCT015
     FM011500 22007KT P6SM VCSH SCT025=



000
FTUS44 KLCH 302149 AAA
TAFBPT
TAF AMD
KBPT 302149Z 3022/0118 20008KT P6SM VCTS FEW020CB SCT035 OVC150
      TEMPO 3022/3024 VRB15G25KT 2SM +TSRA BKN015CB OVC035
     FM010200 VRB03KT P6SM BKN250
     FM011000 00000KT P6SM SCT015
     FM011500 22007KT P6SM VCSH SCT025=



000
FTUS44 KLCH 301738
TAFARA
TAF
KARA 301738Z 3018/0118 22008KT P6SM VCTS SCT025CB BKN080
      TEMPO 3019/3022 VRB15G25KT 2SM +TSRA BKN015CB OVC035
     FM010200 VRB03KT P6SM BKN250
     FM011000 00000KT P6SM SCT015
     FM011500 22007KT P6SM VCSH SCT025=



000
FTUS44 KLCH 301738
TAFBPT
TAF
KBPT 301738Z 3018/0118 20008KT P6SM VCTS FEW020CB SCT035 OVC150
      TEMPO 3018/3021 VRB15G25KT 2SM +TSRA BKN015CB OVC035
     FM010200 VRB03KT P6SM BKN250
     FM011000 00000KT P6SM SCT015
     FM011500 22007KT P6SM VCSH SCT025=



000
FTUS44 KLCH 301738
TAFAEX
TAF
KAEX 301738Z 3018/0118 24008KT P6SM SCT035
     FM302000 20008KT P6SM VCTS FEW025 BKN040CB
     FM010200 VRB04KT P6SM FEW015 BKN250
     FM011500 23006KT P6SM SCT025=



000
FTUS44 KLCH 301738
TAFLFT
TAF
KLFT 301738Z 3018/0118 22007KT P6SM VCTS SCT025CB BKN080
      TEMPO 3019/3022 VRB15G25KT 2SM +TSRA BKN015CB OVC035
     FM010200 VRB03KT P6SM BKN250
     FM011000 00000KT P6SM SCT015
     FM011500 22007KT P6SM VCSH SCT025=



000
FTUS44 KLCH 301738
TAFLCH
TAF
KLCH 301738Z 3018/0118 20008KT P6SM VCTS FEW020CB SCT035 OVC150
      TEMPO 3018/3021 VRB15G25KT 2SM +TSRA BKN015CB OVC035
     FM010200 VRB03KT P6SM BKN250
     FM011000 00000KT P6SM SCT015
     FM011500 22007KT P6SM VCSH SCT025=



000
FTUS44 KLCH 301422 AAA
TAFARA
TAF AMD
KARA 301422Z 3014/0112 23006KT P6SM VCSH SCT025
      TEMPO 3014/3016 BKN025
     FM301600 22012KT P6SM VCTS BKN035CB
     FM010200 VRB04KT P6SM BKN250=



000
FTUS44 KLCH 301421 AAA
TAFLFT
TAF AMD
KLFT 301421Z 3014/0112 24006KT P6SM VCSH SCT025
      TEMPO 3014/3016 BKN025
     FM301600 23011KT P6SM VCTS BKN035CB
     FM010200 VRB03KT P6SM BKN250=



000
FTUS44 KLCH 301421 AAB
TAFLCH
TAF AMD
KLCH 301421Z 3014/0112 VRB04KT P6SM VCTS SCT025CB BKN035
      TEMPO 3014/3016 4SM -SHRA BKN025 OVC035
     FM301600 22010KT P6SM VCTS BKN035CB
     FM010200 VRB04KT P6SM BKN250=



000
FTUS44 KLCH 301418 AAA
TAFBPT
TAF AMD
KBPT 301418Z 3014/0112 19005KT P6SM VCSH SCT015 BKN025
      TEMPO 3014/3016 BKN015 OVC025
     FM301600 20010KT P6SM VCTS BKN035CB
     FM010200 VRB04KT P6SM BKN250=



000
FTUS44 KLCH 301121
TAFLFT
TAF
KLFT 301121Z 3012/0112 24006KT P6SM SCT025 BKN200
     FM301600 23011KT P6SM VCTS BKN035CB
     FM010200 VRB03KT P6SM BKN250=



000
FTUS44 KLCH 301121
TAFBPT
TAF
KBPT 301121Z 3012/0112 19005KT P6SM VCSH SCT025 BKN200
     FM301600 20010KT P6SM VCTS BKN035CB
     FM010200 VRB04KT P6SM BKN250=



000
FTUS44 KLCH 301121
TAFAEX
TAF
KAEX 301121Z 3012/0112 21006KT P6SM SCT020 BKN200
      TEMPO 3012/3013 4SM BR
     FM301700 22008KT P6SM VCTS BKN040CB
     FM010200 VRB04KT P6SM BKN250=



000
FTUS44 KLCH 301121
TAFLCH
TAF
KLCH 301121Z 3012/0112 21006KT P6SM SCT025 BKN200
      TEMPO 3012/3013 4SM BR
     FM301600 22010KT P6SM VCTS BKN035CB
     FM010200 VRB04KT P6SM BKN250=



000
FTUS44 KLCH 301121
TAFARA
TAF
KARA 301121Z 3012/0112 23006KT P6SM SCT025 BKN200
     FM301600 22012KT P6SM VCTS BKN035CB
     FM010200 VRB04KT P6SM BKN250=



000
FTUS44 KLCH 301121
TAFLCH
TAF
KLCH 301121Z 3012/0112 21006KT P6SM SCT025 BKN200
      TEMPO 3012/3013 4SM BR
     FM301600 22010KT P6SM VCTS BKN035CB
     FM010200 VRB04KT P6SM BKN250=



000
FTUS44 KLCH 301121
TAFARA
TAF
KARA 301121Z 3012/0112 23006KT P6SM SCT025 BKN200
     FM301600 22012KT P6SM VCTS BKN035CB
     FM010200 VRB04KT P6SM BKN250=



000
FTUS44 KLCH 301121
TAFLFT
TAF
KLFT 301121Z 3012/0112 24006KT P6SM SCT025 BKN200
     FM301600 23011KT P6SM VCTS BKN035CB
     FM010200 VRB03KT P6SM BKN250=



000
FTUS44 KLCH 301121
TAFAEX
TAF
KAEX 301121Z 3012/0112 21006KT P6SM SCT020 BKN200
      TEMPO 3012/3013 4SM BR
     FM301700 22008KT P6SM VCTS BKN040CB
     FM010200 VRB04KT P6SM BKN250=



000
FTUS44 KLCH 301121
TAFBPT
TAF
KBPT 301121Z 3012/0112 19005KT P6SM VCSH SCT025 BKN200
     FM301600 20010KT P6SM VCTS BKN035CB
     FM010200 VRB04KT P6SM BKN250=



000
FTUS44 KLCH 300833 AAA
TAFBPT
TAF AMD
KBPT 300833Z 3009/0106 VRB03KT P6SM VCSH SCT025 BKN200
     FM301500 20010KT P6SM VCTS SCT035CB
     FM010200 VRB05KT P6SM SCT250=



000
FTUS44 KLCH 300832 AAA
TAFARA
TAF AMD
KARA 300832Z 3009/0106 VRB04KT P6SM VCSH SCT025 BKN200
     FM301500 22010KT P6SM VCTS SCT035CB
     FM010200 VRB05KT P6SM SCT250=



000
FTUS44 KLCH 300831 AAA
TAFLFT
TAF AMD
KLFT 300831Z 3009/0106 VRB03KT P6SM VCSH SCT025 BKN200
     FM301500 23010KT P6SM VCTS SCT035CB
     FM010200 VRB05KT P6SM SCT250=



000
FTUS44 KLCH 300830 AAB
TAFAEX
TAF AMD
KAEX 300830Z 3009/0106 VRB05KT P6SM VCSH SCT015 BKN200
     FM301500 24008KT P6SM VCTS SCT035CB
     FM010200 VRB05KT P6SM SCT250=



000
FTUS44 KLCH 300830 AAB
TAFAEX
TAF AMD
KAEX 300830Z 3009/0106 VRB05KT P6SM VCSH SCT015 BKN200
     FM301500 24008KT P6SM VCTS SCT035CB
     FM010200 VRB05KT P6SM SCT250=



000
FTUS44 KLCH 300829 AAB
TAFLCH
TAF AMD
KLCH 300829Z 3008/0106 VRB04KT P6SM VCSH SCT025 BKN200
     FM301500 21010KT P6SM VCTS SCT035CB
     FM010200 VRB05KT P6SM SCT250=



000
FTUS44 KLCH 300608 AAA
TAFAEX
TAF AMD
KAEX 300608Z 3006/0106 VRB05KT P6SM VCTS SCT035CB SCT250
      TEMPO 3006/3007 VRB10G25KT 2SM TSRA SCT015 BKN035CB
     FM300900 VRB03KT P6SM SCT250
     FM301500 24008KT P6SM VCTS SCT035CB
     FM010200 VRB05KT P6SM SCT250=



000
FTUS44 KLCH 300608 AAA
TAFAEX
TAF AMD
KAEX 300608Z 3006/0106 VRB05KT P6SM VCTS SCT035CB SCT250
      TEMPO 3006/3007 VRB10G25KT 2SM TSRA SCT015 BKN035CB
     FM300900 VRB03KT P6SM SCT250
     FM301500 24008KT P6SM VCTS SCT035CB
     FM010200 VRB05KT P6SM SCT250=



000
FTUS44 KLCH 300520
TAFAEX
TAF
KAEX 300520Z 3006/0106 VRB05KT P6SM VCTS FEW035CB SCT250
     FM300900 VRB03KT P6SM SCT250
     FM301500 24008KT P6SM VCTS SCT035CB
     FM010200 VRB05KT P6SM SCT250=



000
FTUS44 KLCH 300520
TAFLFT
TAF
KLFT 300520Z 3006/0106 VRB03KT P6SM VCTS FEW035CB SCT250
     FM300900 VRB03KT P6SM SCT250
     FM301500 23010KT P6SM VCTS SCT035CB
     FM010200 VRB05KT P6SM SCT250=



000
FTUS44 KLCH 300520
TAFBPT
TAF
KBPT 300520Z 3006/0106 VRB03KT P6SM SCT250
     FM301500 20010KT P6SM VCTS SCT035CB
     FM010200 VRB05KT P6SM SCT250=



000
FTUS44 KLCH 300520
TAFLCH
TAF
KLCH 300520Z 3006/0106 VRB03KT P6SM SCT250
     FM301500 21010KT P6SM VCTS SCT035CB
     FM010200 VRB05KT P6SM SCT250=



000
FTUS44 KLCH 300520
TAFARA
TAF
KARA 300520Z 3006/0106 VRB03KT P6SM VCTS FEW035CB SCT250
     FM300900 VRB03KT P6SM SCT250
     FM301500 22010KT P6SM VCTS SCT035CB
     FM010200 VRB05KT P6SM SCT250=



000
FTUS44 KLCH 292335
TAFLFT
TAF
KLFT 292335Z 3000/3024 23009KT P6SM FEW025 SCT250
     FM300200 VRB03KT P6SM SCT250
     FM301500 23010KT P6SM VCTS SCT035CB=



000
FTUS44 KLCH 292335
TAFBPT
TAF
KBPT 292335Z 3000/3024 22004KT P6SM FEW025 SCT250
     FM300200 VRB03KT P6SM SCT250
     FM301500 20010KT P6SM VCTS SCT035CB=



000
FTUS44 KLCH 292335
TAFLCH
TAF
KLCH 292335Z 3000/3024 23006KT P6SM FEW025 SCT250
     FM300200 VRB03KT P6SM SCT250
     FM301500 20010KT P6SM VCTS SCT035CB=



000
FTUS44 KLCH 292335
TAFAEX
TAF
KAEX 292335Z 3000/3024 24008KT P6SM VCTS SCT035CB SCT250
     FM300200 VRB03KT P6SM SCT250
     FM301500 24008KT P6SM VCTS SCT035CB=



000
FTUS44 KLCH 292335
TAFARA
TAF
KARA 292335Z 3000/3024 23009KT P6SM FEW025 SCT250
     FM300200 VRB03KT P6SM SCT250
     FM301500 22010KT P6SM VCTS SCT035CB=



000
FTUS44 KLCH 292335
TAFLFT
TAF
KLFT 292335Z 3000/3024 23009KT P6SM FEW025 SCT250
     FM300200 VRB03KT P6SM SCT250
     FM301500 23010KT P6SM VCTS SCT035CB=



000
FTUS44 KLCH 292335
TAFBPT
TAF
KBPT 292335Z 3000/3024 22004KT P6SM FEW025 SCT250
     FM300200 VRB03KT P6SM SCT250
     FM301500 20010KT P6SM VCTS SCT035CB=



000
FTUS44 KLCH 292335
TAFAEX
TAF
KAEX 292335Z 3000/3024 24008KT P6SM VCTS SCT035CB SCT250
     FM300200 VRB03KT P6SM SCT250
     FM301500 24008KT P6SM VCTS SCT035CB=



000
FTUS44 KLCH 292335
TAFLCH
TAF
KLCH 292335Z 3000/3024 23006KT P6SM FEW025 SCT250
     FM300200 VRB03KT P6SM SCT250
     FM301500 20010KT P6SM VCTS SCT035CB=



000
FTUS44 KLCH 292335
TAFARA
TAF
KARA 292335Z 3000/3024 23009KT P6SM FEW025 SCT250
     FM300200 VRB03KT P6SM SCT250
     FM301500 22010KT P6SM VCTS SCT035CB=



000
FTUS44 KLCH 292035 AAA
TAFAEX
TAF AMD
KAEX 292035Z 2921/3018 24008KT P6SM VCTS SCT040CB SCT250
      TEMPO 2921/2924 VRB15G30KT 2SM TSRA BKN025CB
     FM300200 20003KT P6SM SCT250=



000
FTUS44 KLCH 292033 AAA
TAFARA
TAF AMD
KARA 292033Z 2921/3018 25008KT P6SM VCTS SCT040CB SCT250
     FM300000 22004KT P6SM SCT250=



000
FTUS44 KLCH 292032 CCA
TAFBPT
TAF COR
KBPT 292032Z 2921/3018 23009KT P6SM VCTS SCT035CB SCT250
     FM300000 22004KT P6SM SCT250=



000
FTUS44 KLCH 292032 AAA
TAFLFT
TAF AMD
KLFT 292032Z 2921/3018 25008KT P6SM VCTS SCT040CB SCT250
     FM300000 22004KT P6SM SCT250=



000
FTUS44 KLCH 292032 CCA
TAFLCH
TAF COR
KLCH 292032Z 2921/3018 25008KT P6SM VCTS SCT035CB SCT250
     FM300000 22004KT P6SM SCT250=



000
FTUS44 KLCH 292032 CCA
TAFLCH
TAF COR
KLCH 292032Z 2921/3018 25008KT P6SM VCTS SCT035CB SCT250
     FM300000 22004KT P6SM SCT250=



000
FTUS44 KLCH 292032 AAA
TAFLFT
TAF AMD
KLFT 292032Z 2921/3018 25008KT P6SM VCTS SCT040CB SCT250
     FM300000 22004KT P6SM SCT250=



000
FTUS44 KLCH 292031 AAA
TAFBPT
TAF AMD
KBPT 292031Z 2921/3018 23009KT P6SM VCTS SCT035CB SCT250
     FM300000 22004KT P6SM BKN200=



000
FTUS44 KLCH 292031 AAA
TAFBPT
TAF AMD
KBPT 292031Z 2921/3018 23009KT P6SM VCTS SCT035CB SCT250
     FM300000 22004KT P6SM BKN200=



000
FTUS44 KLCH 292030 AAA
TAFLCH
TAF AMD
KLCH 292030Z 2921/3018 25008KT P6SM VCTS SCT035CB SCT250
     FM300000 22004KT P6SM BKN200=



000
FTUS44 KLCH 292030 AAA
TAFLCH
TAF AMD
KLCH 292030Z 2921/3018 25008KT P6SM VCTS SCT035CB SCT250
     FM300000 22004KT P6SM BKN200=



000
FTUS44 KLCH 291720
TAFLCH
TAF
KLCH 291720Z 2918/3018 25008KT P6SM VCTS SCT035CB SCT250
      TEMPO 2918/2922 VRB15G30KT 2SM TSRA BKN025CB
     FM300100 22004KT P6SM BKN200=



000
FTUS44 KLCH 291720
TAFBPT
TAF
KBPT 291720Z 2918/3018 23009KT P6SM VCTS SCT035CB SCT250
      TEMPO 2918/2922 VRB15G30KT 2SM TSRA BKN025CB
     FM300100 22004KT P6SM BKN200=



000
FTUS44 KLCH 291720
TAFLCH
TAF
KLCH 291720Z 2918/3018 25008KT P6SM VCTS SCT035CB SCT250
      TEMPO 2918/2922 VRB15G30KT 2SM TSRA BKN025CB
     FM300100 22004KT P6SM BKN200=



000
FTUS44 KLCH 291720
TAFAEX
TAF
KAEX 291720Z 2918/3018 24008KT P6SM VCTS SCT035CB SCT250
      TEMPO 2918/2922 VRB15G30KT 2SM TSRA BKN025CB
     FM300100 20003KT P6SM BKN200=



000
FTUS44 KLCH 291720
TAFLFT
TAF
KLFT 291720Z 2918/3018 25008KT P6SM VCTS SCT040CB SCT250
      TEMPO 2918/2922 VRB15G30KT 2SM TSRA BKN025CB
     FM300100 22004KT P6SM BKN200=



000
FTUS44 KLCH 291720
TAFARA
TAF
KARA 291720Z 2918/3018 25008KT P6SM VCTS SCT040CB SCT250
      TEMPO 2918/2922 VRB15G30KT 2SM TSRA BKN025CB
     FM300100 22004KT P6SM BKN200=



000
FTUS44 KLCH 291428 AAB
TAFLFT
TAF AMD
KLFT 291428Z 2914/3012 21007KT P6SM VCTS SCT025CB SCT250
      TEMPO 2914/2916 VRB15G25KT 2SM TSRA BKN025CB
     FM291600 24009KT P6SM VCTS SCT035CB
      TEMPO 2918/2922 3SM SHRA BKN030
     FM300100 VRB04KT P6SM BKN200=



000
FTUS44 KLCH 291400 AAA
TAFARA
TAF AMD
KARA 291400Z 2914/3012 22005KT P6SM VCTS SCT025CB SCT250
     FM291600 24011KT P6SM VCTS SCT035CB
      TEMPO 2918/2922 3SM SHRA BKN030
     FM300100 VRB04KT P6SM BKN200=



000
FTUS44 KLCH 291359 AAA
TAFLFT
TAF AMD
KLFT 291359Z 2914/3012 21007KT P6SM VCTS SCT025CB SCT250
     FM291600 24009KT P6SM VCTS SCT035CB
      TEMPO 2918/2922 3SM SHRA BKN030
     FM300100 VRB04KT P6SM BKN200=



000
FTUS44 KLCH 291359 AAA
TAFLFT
TAF AMD
KLFT 291359Z 2914/3012 21007KT P6SM VCTS SCT025CB SCT250
     FM291600 24009KT P6SM VCTS SCT035CB
      TEMPO 2918/2922 3SM SHRA BKN030
     FM300100 VRB04KT P6SM BKN200=



000
FTUS44 KLCH 291120
TAFAEX
TAF
KAEX 291120Z 2912/3012 VRB04KT P6SM FEW030 SCT250
      TEMPO 2912/2913 4SM BR
     FM291700 24007KT P6SM VCTS SCT035CB
      TEMPO 2920/2924 3SM SHRA BKN030
     FM300100 VRB04KT P6SM BKN200=



000
FTUS44 KLCH 291120
TAFLCH
TAF
KLCH 291120Z 2912/3012 VRB04KT P6SM FEW025 SCT250
     FM291500 24008KT P6SM VCTS SCT035CB
      TEMPO 2918/2922 3SM SHRA BKN030
     FM300100 VRB04KT P6SM BKN200=



000
FTUS44 KLCH 291120
TAFLFT
TAF
KLFT 291120Z 2912/3012 VRB05KT P6SM SCT250
     FM291600 24009KT P6SM VCTS SCT035CB
      TEMPO 2918/2922 3SM SHRA BKN030
     FM300100 VRB04KT P6SM BKN200=



000
FTUS44 KLCH 291120
TAFBPT
TAF
KBPT 291120Z 2912/3012 VRB04KT P6SM FEW025 SCT250
      TEMPO 2912/2913 4SM BR
     FM291500 23010KT P6SM VCTS SCT035CB
     FM300100 VRB04KT P6SM BKN200=



000
FTUS44 KLCH 291120
TAFARA
TAF
KARA 291120Z 2912/3012 VRB03KT 4SM BR SCT007 SCT250
     FM291300 25005KT P6SM FEW025 SCT250
     FM291600 24011KT P6SM VCTS SCT035CB
      TEMPO 2918/2922 3SM SHRA BKN030
     FM300100 VRB04KT P6SM BKN200=



000
FTUS44 KLCH 291029 AAA
TAFARA
TAF AMD
KARA 291029Z 2910/3006 VRB05KT 5SM BR FEW020 SCT250
      TEMPO 2910/2912 2SM BR
     FM291500 25009KT P6SM VCTS SCT035CB
     FM300100 VRB04KT P6SM SCT250=



000
FTUS44 KLCH 291029 AAA
TAFARA
TAF AMD
KARA 291029Z 2910/3006 VRB05KT 5SM BR FEW020 SCT250
      TEMPO 2910/2912 2SM BR
     FM291500 25009KT P6SM VCTS SCT035CB
     FM300100 VRB04KT P6SM SCT250=



000
FTUS44 KLCH 290857 AAA
TAFBPT
TAF AMD
KBPT 290857Z 2909/3006 VRB04KT 4SM BR FEW025 SCT250
      TEMPO 2909/2912 1SM BR BKN025
     FM291500 23008KT P6SM VCTS SCT035CB
     FM300100 VRB04KT P6SM SCT250=



000
FTUS44 KLCH 290857 AAA
TAFBPT
TAF AMD
KBPT 290857Z 2909/3006 VRB04KT 4SM BR FEW025 SCT250
      TEMPO 2909/2912 1SM BR BKN025
     FM291500 23008KT P6SM VCTS SCT035CB
     FM300100 VRB04KT P6SM SCT250=



    US Dept of Commerce
    National Oceanic and Atmospheric Administration
    National Weather Service
    1325 East West Highway
    Silver Spring, MD 20910
    Page Author: NWS Internet Services Team
Disclaimer
Information Quality
Credits
Glossary
Privacy Policy
Freedom of Information Act (FOIA)
About Us
Career Opportunities